الصفحة الرئيسية
METAR-TAF:

METAR-TAF

مطار :

مطار الأمير سعيد إبراهيم الدولي

موروني, جزر القمر

دائرة عرض: 11-32S, خط طول: 043-16E, ارتفاع: 29 متر

مراقبة الطقس الحالي

تاريخ ووقت الإصدار 28 دقيقة قبل الساعة 06:00UTC
ريح 16 عقدة من الجنوب تتزايد حتى 26 عقدة
درجة الحرارة 28°درجة مئوية
الرطوبة 66%
ضغط 1019 hPa
الرؤية 10 كم أو أكثر
غيوم قليلة على ارتفاع 2000 قدم
غيوم متفرقة على ارتفاع 3000 قدم

METAR: FMCH 160600Z 19016G26KT 9999 FEW020 SCT030 28/21 Q1019 NOSIG

زمن: 09:28 (06:28 UTC)

توقعات

تاريخ ووقت الإصدار 1ساعة و 28 دقيقة قبل الساعة 05:00UTC
التوقعات صالحة من16 الساعة 06 UTC إلى 17 الساعة 12 UTC
ريح 15 عقدة من الجنوب/الجنوب الغربي
الرؤية 10 كم أو أكثر
غيوم قليلة على ارتفاع 2000 قدم
أصبح
من 16 الساعة 16 UTC إلى 16 الساعة 18 UTC
ريح 7 عقدة من الشرق
أصبح
من 17 الساعة 05 UTC إلى 17 الساعة 07 UTC
ريح 12 عقدة من الجنوب/الجنوب الغربي

TAF: FMCH 160500Z 1606/1712 20015KT 9999 FEW020 BECMG 1616/1618 10007KT BECMG 1705/1707 20012KT

أرصاد الطقس والتوقعات من أكثر من 4000 مطار (تقارير الطقس للمطار METAR والتنبؤ بالطقس بالمطارTAF).

المحطات المتاحة هي النقط الصفراء والحمراء على الخريطة.

حرك المؤشر فوق النقطة لمعرفة اسم المحطة.

ثم انقر لمعرفة أرصاد وتوقعات الطقس.

لتغيير الخارطة: اضغط على الأزرار الخضراء مع رمز الصليب الأسود للتكبير. على الزر الأخضر مع شرطة للتصغير، أو على الأسهم الخضراء للخرائط المجاورة.


METAR-TAF: